• Join FlightAware (Why Join?)
  • Login
  • US Flag 
09:54PM EDT


 

Airport Tracker/Info


-or-


 

Live Flight TrackerFlight Track Log ✈ CTL22 ✈ 15-Apr-2013 ✈ KGRR - KAZO

Flight Track Log - Related Links

Times and Time Zones

All times are in EDT time to prevent confusion due to time zone crossing. See the CTL22 flight status page for this flight to view local times or setup timezone preferences in your user account.

Time Position Orientation Groundspeed Altitude Reporting Facility
EDT Latitude Longitude Course Direction KTS MPH feet Rate Location/Type
07:33PM 42.7847 -85.5647 181° South 142 163 3,000  Level Chicago Center
07:34PM 42.7464 -85.5708 187° South 142 163 3,100  Climbing Chicago Center
07:35PM 42.6978 -85.5736 182° South 146 168 3,100  Level Chicago Center
07:36PM 42.6918 -85.5313 182° South  Level Estimated
07:36PM 42.6611 -85.5953 203° Southwest 143 165 3,100  Level Chicago Center
07:37PM 42.6540 -85.5318 181° South  Level FlightAware Approximate
07:37PM 42.6219 -85.6036 189° South 144 166 3,000  Level Chicago Center
07:38PM 42.6161 -85.5322 181° South  Level FlightAware Approximate
07:38PM 42.5833 -85.6106 188° South 145 167 3,100  Level Chicago Center
07:39PM 42.5442 -85.5975 166° South 146 168 3,000  Descending Chicago Center
07:40PM 42.5058 -85.5808 162° South 146 168 3,100  Climbing Chicago Center
07:41PM 42.4656 -85.5781 177° South 143 165 3,000 -60 Descending Chicago Center
07:42PM 42.4181 -85.5719 175° South 144 166 3,000 -300 Level Chicago Center
07:43PM 42.3764 -85.5675 175° South 148 170 2,500 -420 Descending Chicago Center
07:44PM 42.3361 -85.5614 174° South 147 169 2,200 -300 Descending Chicago Center
07:45PM 42.3075 -85.5583 175° South 108 124 1,900 -480 Descending Chicago Center
07:46PM 42.2786 -85.5564 177° South 98 113 1,300 -360 Descending Chicago Center
07:47PM 42.2522 -85.5547 177° South 94 108 1,200 -120 Descending Chicago Center
07:49PM 42.2333 -85.5500 180° South  Level FlightAware Approximate
07:56PM 42.2344 -85.5516 180° South  Level Estimated